createdAt,value
2023-01-22T00:02:06.572Z,94808.16
2023-01-22T00:04:33.354Z,94823.22
2023-01-22T00:06:59.962Z,94818.81
2023-01-22T00:09:26.561Z,94842.63
2023-01-22T00:11:53.193Z,94810.50
2023-01-22T00:14:19.852Z,94792.31
2023-01-22T00:16:46.414Z,94810.69
2023-01-22T00:19:13.085Z,94827.94
2023-01-22T00:21:39.677Z,94806.78
2023-01-22T00:24:06.603Z,94778.34
2023-01-22T00:26:33.315Z,94817.31
2023-01-22T00:28:59.950Z,94808.44
2023-01-22T00:31:26.711Z,94799.00
2023-01-22T00:33:53.351Z,94811.25
2023-01-22T00:36:21.829Z,94821.63
2023-01-22T00:38:49.451Z,94817.75
2023-01-22T00:41:17.258Z,94818.94
2023-01-22T00:43:44.021Z,94831.16
2023-01-22T00:46:13.942Z,94835.06
2023-01-22T00:48:41.090Z,94825.31
2023-01-22T00:51:08.869Z,94825.28
2023-01-22T00:53:36.812Z,94835.69
2023-01-22T00:56:03.786Z,94825.63
2023-01-22T00:58:30.536Z,94848.06
2023-01-22T01:00:57.243Z,94850.00
2023-01-22T01:03:26.730Z,94843.63
2023-01-22T01:05:57.768Z,94840.69
2023-01-22T01:08:25.563Z,94842.84
2023-01-22T01:10:57.209Z,94867.94
2023-01-22T01:13:23.989Z,94829.97
2023-01-22T01:15:51.036Z,94865.59
2023-01-22T01:18:17.713Z,94883.13
2023-01-22T01:20:44.379Z,94874.78
2023-01-22T01:23:10.994Z,94870.56
2023-01-22T01:25:40.480Z,94880.47
2023-01-22T01:28:07.081Z,94867.81
2023-01-22T01:30:34.147Z,94862.97
2023-01-22T01:33:00.763Z,94895.66
2023-01-22T01:35:27.433Z,94902.94
2023-01-22T01:37:54.087Z,94912.88
2023-01-22T01:40:20.690Z,94889.63
2023-01-22T01:42:47.298Z,94894.25
2023-01-22T01:45:30.130Z,94903.25
2023-01-22T01:48:20.170Z,94895.97
2023-01-22T01:50:55.861Z,94885.63
2023-01-22T01:53:22.592Z,94903.38
2023-01-22T01:55:49.734Z,94887.69
2023-01-22T01:58:21.798Z,94895.66
2023-01-22T02:00:51.942Z,94901.50
2023-01-22T02:03:19.990Z,94903.03
2023-01-22T02:05:46.647Z,94885.66
2023-01-22T02:08:14.803Z,94898.78
2023-01-22T02:10:41.803Z,94883.44
2023-01-22T02:13:14.515Z,94889.50
2023-01-22T02:15:42.592Z,94888.63
2023-01-22T02:18:09.192Z,94889.38
2023-01-22T02:20:40.394Z,94887.25
2023-01-22T02:23:07.489Z,94892.75
2023-01-22T02:25:34.484Z,94868.44
2023-01-22T02:28:01.353Z,94882.47
2023-01-22T02:30:28.452Z,94882.72
2023-01-22T02:32:55.075Z,94882.81
2023-01-22T02:35:21.724Z,94868.72
2023-01-22T02:37:49.184Z,94878.56
2023-01-22T02:40:16.043Z,94895.72
2023-01-22T02:42:42.745Z,94871.84
2023-01-22T02:45:09.897Z,94886.72
2023-01-22T02:47:36.678Z,94903.94
2023-01-22T02:50:04.092Z,94880.63
2023-01-22T02:52:30.853Z,94892.78
2023-01-22T02:54:57.719Z,94904.69
2023-01-22T02:57:24.376Z,94881.06
2023-01-22T02:59:51.006Z,94896.78
2023-01-22T03:02:17.732Z,94866.00
2023-01-22T03:04:46.711Z,94903.59
2023-01-22T03:07:13.444Z,94906.94
2023-01-22T03:09:40.261Z,94899.50
2023-01-22T03:12:07.244Z,94887.81
2023-01-22T03:14:52.512Z,94896.38
2023-01-22T03:17:37.788Z,94901.75
2023-01-22T03:20:24.307Z,94887.13
2023-01-22T03:22:50.877Z,94885.94
2023-01-22T03:25:17.566Z,94910.00
2023-01-22T03:28:04.167Z,94892.03
2023-01-22T03:30:30.763Z,94899.94
2023-01-22T03:32:57.402Z,94897.31
2023-01-22T03:35:24.061Z,94890.41
2023-01-22T03:37:50.692Z,94873.03
2023-01-22T03:40:17.849Z,94904.91
2023-01-22T03:42:44.670Z,94909.88
2023-01-22T03:45:11.714Z,94893.72
2023-01-22T03:47:38.767Z,94906.28
2023-01-22T03:50:06.059Z,94913.19
2023-01-22T03:52:32.611Z,94910.59
2023-01-22T03:54:59.211Z,94905.72
2023-01-22T03:57:25.812Z,94892.19
2023-01-22T03:59:52.347Z,94897.59
2023-01-22T04:02:19.054Z,94910.16
2023-01-22T04:04:47.725Z,94921.22
2023-01-22T04:07:14.396Z,94928.03
2023-01-22T04:09:40.984Z,94928.91
2023-01-22T04:12:07.978Z,94929.50
2023-01-22T04:14:34.577Z,94933.00
2023-01-22T04:17:01.218Z,94936.34
2023-01-22T04:19:27.851Z,94941.50
2023-01-22T04:21:54.440Z,94938.59
2023-01-22T04:24:21.017Z,94945.28
2023-01-22T04:26:47.641Z,94933.72
2023-01-22T04:29:14.178Z,94948.03
2023-01-22T04:31:40.777Z,94944.78
2023-01-22T04:34:07.437Z,94950.53
2023-01-22T04:36:34.106Z,94964.59
2023-01-22T04:39:00.693Z,94953.69
2023-01-22T04:41:27.377Z,94977.34
2023-01-22T04:43:53.988Z,94982.31
2023-01-22T04:46:20.707Z,94961.16
2023-01-22T04:48:47.402Z,94974.16
2023-01-22T04:51:14.181Z,94973.31
2023-01-22T04:53:40.818Z,94973.63
2023-01-22T04:56:07.681Z,94979.63
2023-01-22T04:58:34.302Z,94994.00
2023-01-22T05:01:00.988Z,94994.00
2023-01-22T05:03:27.657Z,94972.88
2023-01-22T05:05:54.302Z,94999.22
2023-01-22T05:08:20.923Z,95004.09
2023-01-22T05:10:47.537Z,95024.97
2023-01-22T05:13:14.109Z,95023.19
2023-01-22T05:15:40.747Z,95022.78
2023-01-22T05:18:07.382Z,95027.66
2023-01-22T05:20:33.993Z,95031.81
2023-01-22T05:23:01.058Z,95027.16
2023-01-22T05:25:28.122Z,94993.22
2023-01-22T05:27:54.716Z,95035.59
2023-01-22T05:30:21.428Z,95053.50
2023-01-22T05:32:48.097Z,95058.22
2023-01-22T05:35:15.334Z,95061.06
2023-01-22T05:37:41.992Z,95029.66
2023-01-22T05:40:09.250Z,95066.66
2023-01-22T05:42:35.894Z,95056.75
2023-01-22T05:45:03.330Z,95031.19
2023-01-22T05:47:30.918Z,95090.19
2023-01-22T05:49:57.603Z,95074.16
2023-01-22T05:52:24.378Z,95019.34
2023-01-22T05:54:50.992Z,95059.56
2023-01-22T05:57:17.745Z,95079.72
2023-01-22T05:59:44.370Z,95097.66
2023-01-22T06:02:11.037Z,95083.22
2023-01-22T06:04:37.652Z,95109.84
2023-01-22T06:07:04.218Z,95107.84
2023-01-22T06:09:30.838Z,95109.44
2023-01-22T06:11:57.587Z,95114.06
2023-01-22T06:14:24.254Z,95080.16
2023-01-22T06:16:51.035Z,95116.56
2023-01-22T06:19:17.731Z,95123.59
2023-01-22T06:21:44.353Z,95131.34
2023-01-22T06:24:11.741Z,95059.19
2023-01-22T06:26:38.684Z,95132.53
2023-01-22T06:29:05.875Z,95118.69
2023-01-22T06:31:32.830Z,95127.47
2023-01-22T06:33:59.545Z,95140.16
2023-01-22T06:36:26.225Z,95155.09
2023-01-22T06:38:52.957Z,95145.63
2023-01-22T06:41:19.834Z,95123.94
2023-01-22T06:43:46.418Z,95138.69
2023-01-22T06:46:13.006Z,95141.22
2023-01-22T06:48:39.585Z,95157.81
2023-01-22T06:51:06.280Z,95145.88
2023-01-22T06:53:33.324Z,95158.56
2023-01-22T06:56:01.183Z,95152.38
2023-01-22T06:58:28.505Z,95160.50
2023-01-22T07:00:55.106Z,95161.81
2023-01-22T07:03:21.873Z,95170.16
2023-01-22T07:05:57.136Z,95179.56
2023-01-22T07:08:23.865Z,95155.53
2023-01-22T07:10:50.553Z,95177.31
2023-01-22T07:13:17.213Z,95155.09
2023-01-22T07:15:44.415Z,95175.13
2023-01-22T07:18:14.373Z,95123.38
2023-01-22T07:20:42.361Z,95180.38
2023-01-22T07:23:16.223Z,95172.47
2023-01-22T07:25:44.772Z,95194.75
2023-01-22T07:28:14.957Z,95165.34
2023-01-22T07:30:43.438Z,95127.22
2023-01-22T07:33:11.568Z,95148.03
2023-01-22T07:35:38.900Z,95136.97
2023-01-22T07:38:05.998Z,95103.38
2023-01-22T07:40:33.498Z,95189.09
2023-01-22T07:43:00.264Z,95161.47
2023-01-22T07:45:26.894Z,95146.59
2023-01-22T07:47:58.201Z,95139.66
2023-01-22T07:50:30.167Z,95185.38
2023-01-22T07:52:57.909Z,95187.72
2023-01-22T07:55:24.474Z,95195.66
2023-01-22T07:58:06.584Z,95192.06
2023-01-22T08:00:35.663Z,95204.19
2023-01-22T08:03:04.656Z,95192.81
2023-01-22T08:05:31.598Z,95160.50
2023-01-22T08:07:58.644Z,95175.88
2023-01-22T08:10:25.664Z,95163.91
2023-01-22T08:12:52.676Z,95173.59
2023-01-22T08:15:19.383Z,95221.72
2023-01-22T08:17:50.144Z,95180.84
2023-01-22T08:20:17.779Z,95225.88
2023-01-22T08:22:45.557Z,95231.31
2023-01-22T08:25:12.290Z,95237.13
2023-01-22T08:27:38.997Z,95230.28
2023-01-22T08:30:06.491Z,95192.50
2023-01-22T08:32:33.203Z,95207.66
2023-01-22T08:34:59.913Z,95221.56
2023-01-22T08:37:26.860Z,95209.69
2023-01-22T08:39:53.463Z,95183.72
2023-01-22T08:42:20.134Z,95143.19
2023-01-22T08:44:46.771Z,95197.56
2023-01-22T08:47:13.559Z,95229.41
2023-01-22T08:49:40.503Z,95226.41
2023-01-22T08:52:07.850Z,95216.03
2023-01-22T08:54:41.567Z,95241.25
2023-01-22T08:57:08.352Z,95231.69
2023-01-22T08:59:35.094Z,95191.13
2023-01-22T09:02:02.114Z,95197.94
2023-01-22T09:04:29.057Z,95218.16
2023-01-22T09:06:56.049Z,95198.06
2023-01-22T09:09:23.078Z,95228.47
2023-01-22T09:11:50.074Z,95234.78
2023-01-22T09:14:22.646Z,95189.47
2023-01-22T09:16:49.570Z,95179.66
2023-01-22T09:19:16.202Z,95190.31
2023-01-22T09:21:43.227Z,95232.72
2023-01-22T09:24:09.934Z,95203.56
2023-01-22T09:26:37.091Z,95215.06
2023-01-22T09:29:05.908Z,95236.47
2023-01-22T09:31:37.020Z,95214.78
2023-01-22T09:34:04.647Z,95179.25
2023-01-22T09:36:31.555Z,95191.72
2023-01-22T09:38:58.258Z,95219.81
2023-01-22T09:41:30.235Z,95231.34
2023-01-22T09:43:59.773Z,95227.28
2023-01-22T09:46:55.986Z,95222.81
2023-01-22T09:49:46.340Z,95237.19
2023-01-22T09:52:12.980Z,95183.69
2023-01-22T09:54:39.828Z,95225.78
2023-01-22T09:57:19.807Z,95157.41
2023-01-22T09:59:57.308Z,95239.25
2023-01-22T10:02:59.102Z,95169.69
2023-01-22T10:05:37.601Z,95214.03
2023-01-22T10:08:14.969Z,95227.06
2023-01-22T10:10:42.245Z,95190.13
2023-01-22T10:13:23.885Z,95219.59
2023-01-22T10:15:53.308Z,95155.19
2023-01-22T10:18:35.125Z,95215.50
2023-01-22T10:21:06.174Z,95132.38
2023-01-22T10:23:34.519Z,95164.47
2023-01-22T10:26:14.896Z,95205.31
2023-01-22T10:29:08.422Z,95219.75
2023-01-22T10:31:39.918Z,95217.34
2023-01-22T10:34:16.222Z,95149.66
2023-01-22T10:36:50.421Z,95215.69
2023-01-22T10:39:18.231Z,95112.38
2023-01-22T10:41:47.071Z,95155.66
2023-01-22T10:44:16.611Z,95210.22
2023-01-22T10:46:44.212Z,95206.09
2023-01-22T10:49:26.033Z,95203.50
2023-01-22T10:52:04.950Z,95154.03
2023-01-22T10:54:41.609Z,95155.38
2023-01-22T10:57:19.728Z,95208.56
2023-01-22T10:59:55.848Z,95202.50
2023-01-22T11:02:25.816Z,95204.41
2023-01-22T11:04:53.321Z,95195.38
2023-01-22T11:07:33.303Z,95185.06
2023-01-22T11:10:12.326Z,95200.66
2023-01-22T11:12:46.680Z,95202.34
2023-01-22T11:15:19.736Z,95197.94
2023-01-22T11:17:57.009Z,95208.66
2023-01-22T11:20:29.448Z,95181.72
2023-01-22T11:23:11.178Z,95213.81
2023-01-22T11:26:21.760Z,95189.13
2023-01-22T11:29:24.906Z,95198.53
2023-01-22T11:31:54.197Z,95194.91
2023-01-22T11:34:39.294Z,95191.59
2023-01-22T11:37:15.493Z,95193.06
2023-01-22T11:39:50.891Z,95198.94
2023-01-22T11:42:33.309Z,95183.22
2023-01-22T11:45:07.587Z,95200.84
2023-01-22T11:47:49.996Z,95188.66
2023-01-22T11:50:22.596Z,95202.97
2023-01-22T11:53:02.339Z,95161.31
2023-01-22T11:55:57.804Z,95203.69
2023-01-22T11:58:39.563Z,95187.97
2023-01-22T12:01:29.618Z,95202.38
2023-01-22T12:04:22.406Z,95191.13
2023-01-22T12:07:13.536Z,95203.91
2023-01-22T12:10:15.027Z,95205.19
2023-01-22T12:12:56.924Z,95194.53
2023-01-22T12:16:00.777Z,95198.78
2023-01-22T12:18:27.352Z,95191.59
2023-01-22T12:21:09.049Z,95185.84
2023-01-22T12:23:47.527Z,95197.44
2023-01-22T12:26:19.696Z,95174.06
2023-01-22T12:28:52.318Z,95195.47
2023-01-22T12:31:58.511Z,95174.63
2023-01-22T12:34:34.294Z,95185.47
2023-01-22T12:37:03.297Z,95182.03
2023-01-22T12:39:36.429Z,95200.06
2023-01-22T12:42:43.457Z,95196.34
2023-01-22T12:45:42.270Z,95202.66
2023-01-22T12:48:38.652Z,95191.03
2023-01-22T12:51:05.453Z,95201.31
2023-01-22T12:53:34.823Z,95201.06
2023-01-22T12:56:07.515Z,95200.47
2023-01-22T12:58:40.076Z,95208.69
2023-01-22T13:01:22.672Z,95202.91
2023-01-22T13:04:04.217Z,95214.88
2023-01-22T13:06:39.713Z,95215.03
2023-01-22T13:09:24.633Z,95202.78
2023-01-22T13:11:51.242Z,95205.31
2023-01-22T13:14:28.612Z,95190.94
2023-01-22T13:17:04.717Z,95210.31
2023-01-22T13:19:42.089Z,95219.09
2023-01-22T13:22:22.194Z,95215.16
2023-01-22T13:24:50.714Z,95231.09
2023-01-22T13:27:31.371Z,95226.09
2023-01-22T13:30:22.783Z,95223.41
2023-01-22T13:32:49.488Z,95230.19
2023-01-22T13:35:19.792Z,95235.63
2023-01-22T13:37:50.964Z,95200.19
2023-01-22T13:40:24.960Z,95234.75
2023-01-22T13:42:51.760Z,95233.53
2023-01-22T13:45:24.052Z,95216.88
2023-01-22T13:47:53.176Z,95236.41
2023-01-22T13:50:22.441Z,95208.50
2023-01-22T13:52:50.505Z,95233.25
2023-01-22T13:55:20.371Z,95215.66
2023-01-22T13:57:52.643Z,95237.47
2023-01-22T14:00:30.065Z,95241.09
2023-01-22T14:02:58.346Z,95194.09
2023-01-22T14:05:30.253Z,95231.03
2023-01-22T14:08:06.118Z,95245.56
2023-01-22T14:10:33.033Z,95243.72
2023-01-22T14:13:05.371Z,95240.97
2023-01-22T14:15:31.894Z,95246.72
2023-01-22T14:18:10.677Z,95245.03
2023-01-22T14:20:41.612Z,95236.84
2023-01-22T14:23:08.880Z,95211.38
2023-01-22T14:25:46.196Z,95227.44
2023-01-22T14:28:13.660Z,95219.88
2023-01-22T14:30:40.358Z,95230.63
2023-01-22T14:33:07.256Z,95242.78
2023-01-22T14:35:33.890Z,95249.44
2023-01-22T14:38:00.688Z,95229.06
2023-01-22T14:40:28.042Z,95253.28
2023-01-22T14:42:54.634Z,95262.31
2023-01-22T14:45:21.535Z,95248.97
2023-01-22T14:47:53.148Z,95257.59
2023-01-22T14:50:20.862Z,95229.84
2023-01-22T14:52:49.073Z,95231.09
2023-01-22T14:55:15.929Z,95265.50
2023-01-22T14:57:42.659Z,95250.91
2023-01-22T15:00:11.715Z,95263.25
2023-01-22T15:02:39.973Z,95276.84
2023-01-22T15:05:07.159Z,95274.69
2023-01-22T15:07:34.753Z,95263.69
2023-01-22T15:10:02.112Z,95268.59
2023-01-22T15:12:28.748Z,95270.91
2023-01-22T15:14:55.358Z,95230.53
2023-01-22T15:17:22.190Z,95285.59
2023-01-22T15:19:52.003Z,95299.31
2023-01-22T15:22:18.781Z,95229.44
2023-01-22T15:24:45.414Z,95290.31
2023-01-22T15:27:18.604Z,95287.59
2023-01-22T15:29:46.089Z,95292.91
2023-01-22T15:32:12.795Z,95236.28
2023-01-22T15:34:39.449Z,95297.84
2023-01-22T15:37:06.855Z,95266.66
2023-01-22T15:39:33.626Z,95321.28
2023-01-22T15:42:00.248Z,95302.72
2023-01-22T15:44:26.936Z,95267.75
2023-01-22T15:46:55.063Z,95296.75
2023-01-22T15:49:21.654Z,95279.72
2023-01-22T15:51:48.839Z,95286.69
2023-01-22T15:54:16.530Z,95300.78
2023-01-22T15:56:43.496Z,95293.81
2023-01-22T15:59:11.797Z,95281.56
2023-01-22T16:01:39.988Z,95307.38
2023-01-22T16:04:07.267Z,95324.00
2023-01-22T16:06:34.751Z,95315.72
2023-01-22T16:09:03.728Z,95275.25
2023-01-22T16:11:31.105Z,95254.09
2023-01-22T16:13:59.227Z,95308.13
2023-01-22T16:16:31.663Z,95308.78
2023-01-22T16:19:00.999Z,95294.66
2023-01-22T16:21:28.571Z,95309.66
2023-01-22T16:23:59.027Z,95322.94
2023-01-22T16:26:28.824Z,95269.72
2023-01-22T16:28:57.111Z,95315.22
2023-01-22T16:31:26.846Z,95313.00
2023-01-22T16:33:59.410Z,95279.47
2023-01-22T16:36:29.107Z,95310.41
2023-01-22T16:38:56.502Z,95313.38
2023-01-22T16:41:30.096Z,95318.13
2023-01-22T16:44:05.813Z,95323.47
2023-01-22T16:46:33.893Z,95329.00
2023-01-22T16:49:28.782Z,95321.53
2023-01-22T16:52:01.517Z,95320.34
2023-01-22T16:54:37.406Z,95323.06
2023-01-22T16:57:05.299Z,95333.91
2023-01-22T16:59:34.149Z,95270.72
2023-01-22T17:02:02.948Z,95279.84
2023-01-22T17:04:29.796Z,95339.53
2023-01-22T17:07:01.719Z,95338.03
2023-01-22T17:09:32.537Z,95307.16
2023-01-22T17:12:01.583Z,95335.41
2023-01-22T17:14:30.026Z,95327.81
2023-01-22T17:16:58.249Z,95341.06
2023-01-22T17:19:26.149Z,95295.69
2023-01-22T17:21:55.518Z,95349.56
2023-01-22T17:24:22.812Z,95341.41
2023-01-22T17:26:50.959Z,95294.59
2023-01-22T17:29:18.412Z,95346.09
2023-01-22T17:31:45.824Z,95349.97
2023-01-22T17:34:13.155Z,95348.59
2023-01-22T17:36:41.156Z,95358.38
2023-01-22T17:39:13.580Z,95290.41
2023-01-22T17:41:40.678Z,95372.59
2023-01-22T17:44:07.774Z,95360.53
2023-01-22T17:46:35.856Z,95368.69
2023-01-22T17:49:04.873Z,95352.81
2023-01-22T17:51:33.677Z,95362.03
2023-01-22T17:54:02.473Z,95356.72
2023-01-22T17:56:35.078Z,95326.13
2023-01-22T17:59:04.296Z,95369.53
2023-01-22T18:01:32.758Z,95383.13
2023-01-22T18:04:03.144Z,95386.50
2023-01-22T18:06:30.146Z,95358.38
2023-01-22T18:08:58.453Z,95386.28
2023-01-22T18:11:30.107Z,95391.94
2023-01-22T18:14:02.930Z,95383.66
2023-01-22T18:16:32.566Z,95374.69
2023-01-22T18:19:02.940Z,95390.63
2023-01-22T18:21:30.329Z,95396.91
2023-01-22T18:23:59.586Z,95383.47
2023-01-22T18:26:29.893Z,95346.19
2023-01-22T18:28:58.306Z,95360.53
2023-01-22T18:31:26.817Z,95384.97
2023-01-22T18:33:56.148Z,95408.44
2023-01-22T18:36:28.303Z,95399.97
2023-01-22T18:38:58.584Z,95405.50
2023-01-22T18:41:26.616Z,95394.75
2023-01-22T18:43:59.612Z,95394.75
2023-01-22T18:46:29.526Z,95421.94
2023-01-22T18:49:02.506Z,95417.69
2023-01-22T18:51:29.819Z,95416.59
2023-01-22T18:53:57.741Z,95390.41
2023-01-22T18:56:25.880Z,95384.09
2023-01-22T18:58:59.423Z,95442.66
2023-01-22T19:01:32.670Z,95438.75
2023-01-22T19:04:02.825Z,95430.50
2023-01-22T19:06:35.143Z,95428.22
2023-01-22T19:09:14.525Z,95425.41
2023-01-22T19:11:43.776Z,95412.47
2023-01-22T19:14:14.304Z,95422.03
2023-01-22T19:16:45.016Z,95416.81
2023-01-22T19:19:13.766Z,95411.16
2023-01-22T19:21:47.343Z,95432.25
2023-01-22T19:24:18.755Z,95425.28
2023-01-22T19:26:46.765Z,95427.91
2023-01-22T19:29:17.578Z,95432.03
2023-01-22T19:31:46.807Z,95396.59
2023-01-22T19:34:18.640Z,95422.03
2023-01-22T19:36:45.501Z,95419.53
2023-01-22T19:39:13.123Z,95422.16
2023-01-22T19:41:41.443Z,95434.53
2023-01-22T19:44:11.359Z,95426.69
2023-01-22T19:46:39.906Z,95424.31
2023-01-22T19:49:08.716Z,95403.44
2023-01-22T19:51:35.895Z,95403.22
2023-01-22T19:54:04.870Z,95411.81
2023-01-22T19:56:34.560Z,95388.91
2023-01-22T19:59:06.349Z,95428.22
2023-01-22T20:01:34.062Z,95415.84
2023-01-22T20:04:00.958Z,95411.16
2023-01-22T20:06:28.821Z,95420.06
2023-01-22T20:08:57.086Z,95388.34
2023-01-22T20:11:24.450Z,95394.75
2023-01-22T20:13:52.658Z,95402.03
2023-01-22T20:16:25.486Z,95408.13
2023-01-22T20:18:54.346Z,95405.06
2023-01-22T20:21:23.130Z,95408.22
2023-01-22T20:23:50.871Z,95360.88
2023-01-22T20:26:20.266Z,95402.78
2023-01-22T20:28:47.905Z,95408.09
2023-01-22T20:31:20.551Z,95399.09
2023-01-22T20:33:47.735Z,95420.41
2023-01-22T20:36:17.974Z,95399.84
2023-01-22T20:38:46.123Z,95417.75
2023-01-22T20:41:14.283Z,95392.69
2023-01-22T20:43:42.866Z,95410.25
2023-01-22T20:46:14.758Z,95404.94
2023-01-22T20:48:42.414Z,95404.50
2023-01-22T20:51:15.665Z,95420.22
2023-01-22T20:53:43.257Z,95413.69
2023-01-22T20:56:14.667Z,95419.97
2023-01-22T20:58:41.902Z,95418.31
2023-01-22T21:01:15.968Z,95419.50
2023-01-22T21:03:43.940Z,95410.66
2023-01-22T21:06:14.186Z,95408.63
2023-01-22T21:08:42.386Z,95420.03
2023-01-22T21:11:12.603Z,95412.13
2023-01-22T21:13:40.376Z,95409.31
2023-01-22T21:16:10.380Z,95409.41
2023-01-22T21:18:41.520Z,95388.63
2023-01-22T21:21:09.201Z,95411.66
2023-01-22T21:23:37.174Z,95410.56
2023-01-22T21:26:05.874Z,95428.41
2023-01-22T21:28:33.014Z,95419.75
2023-01-22T21:31:12.180Z,95423.13
2023-01-22T21:33:39.391Z,95383.59
2023-01-22T21:36:08.243Z,95425.97
2023-01-22T21:38:35.947Z,95415.53
2023-01-22T21:41:04.062Z,95414.47
2023-01-22T21:43:49.361Z,95417.69
2023-01-22T21:46:22.252Z,95398.44
2023-01-22T21:48:49.486Z,95403.38
2023-01-22T21:51:16.298Z,95411.81
2023-01-22T21:53:45.053Z,95408.94
2023-01-22T21:56:11.701Z,95425.09
2023-01-22T21:58:42.399Z,95390.88
2023-01-22T22:01:09.580Z,95418.38
2023-01-22T22:03:36.219Z,95409.69
2023-01-22T22:06:02.894Z,95403.19
2023-01-22T22:08:29.815Z,95391.13
2023-01-22T22:10:57.495Z,95416.44
2023-01-22T22:13:24.382Z,95414.50
2023-01-22T22:15:50.974Z,95411.03
2023-01-22T22:18:17.529Z,95418.72
2023-01-22T22:20:44.098Z,95398.84
2023-01-22T22:23:10.655Z,95378.88
2023-01-22T22:25:37.253Z,95407.88
2023-01-22T22:28:03.963Z,95404.19
2023-01-22T22:30:30.580Z,95386.59
2023-01-22T22:32:58.931Z,95404.06
2023-01-22T22:35:25.585Z,95401.47
2023-01-22T22:37:52.330Z,95397.88
2023-01-22T22:40:19.383Z,95406.34
2023-01-22T22:42:46.242Z,95412.97
2023-01-22T22:45:12.938Z,95408.09
2023-01-22T22:47:39.530Z,95398.75
2023-01-22T22:50:06.891Z,95372.56
2023-01-22T22:52:34.242Z,95383.13
2023-01-22T22:55:00.816Z,95402.03
2023-01-22T22:57:27.379Z,95393.13
2023-01-22T22:59:53.963Z,95390.84
2023-01-22T23:02:21.829Z,95370.97
2023-01-22T23:04:48.461Z,95398.13
2023-01-22T23:07:15.055Z,95397.72
2023-01-22T23:09:41.641Z,95397.16
2023-01-22T23:12:08.316Z,95394.75
2023-01-22T23:14:36.558Z,95411.28
2023-01-22T23:17:04.851Z,95409.75
2023-01-22T23:19:31.467Z,95395.63
2023-01-22T23:21:59.945Z,95413.66
2023-01-22T23:24:27.783Z,95420.41
2023-01-22T23:26:54.475Z,95402.47
2023-01-22T23:29:24.141Z,95396.59
2023-01-22T23:31:51.499Z,95396.50
2023-01-22T23:34:20.866Z,95403.47
2023-01-22T23:36:48.757Z,95417.78
2023-01-22T23:39:17.368Z,95404.53
2023-01-22T23:41:44.823Z,95410.84
2023-01-22T23:44:11.881Z,95384.66
2023-01-22T23:46:38.876Z,95390.31
2023-01-22T23:49:05.908Z,95402.13
2023-01-22T23:51:32.617Z,95403.66
2023-01-22T23:53:59.184Z,95384.66
2023-01-22T23:56:31.526Z,95396.59
2023-01-22T23:58:59.127Z,95391.81
